sensor_id;sensor_type;location;lat;lon;timestamp;P1;durP1;ratioP1;P2;durP2;ratioP2
77868;SDS011;67231;59.144;37.934;2023-12-28T00:01:47;5.60;;;2.65;;
77868;SDS011;67231;59.144;37.934;2023-12-28T00:04:14;6.70;;;2.90;;
77868;SDS011;67231;59.144;37.934;2023-12-28T00:06:41;7.88;;;2.70;;
77868;SDS011;67231;59.144;37.934;2023-12-28T00:09:07;5.30;;;2.22;;
77868;SDS011;67231;59.144;37.934;2023-12-28T00:11:35;4.80;;;2.58;;
77868;SDS011;67231;59.144;37.934;2023-12-28T00:14:02;6.80;;;2.60;;
77868;SDS011;67231;59.144;37.934;2023-12-28T00:16:30;6.75;;;2.88;;
77868;SDS011;67231;59.144;37.934;2023-12-28T00:18:58;5.35;;;2.75;;
77868;SDS011;67231;59.144;37.934;2023-12-28T00:21:26;7.03;;;2.80;;
77868;SDS011;67231;59.144;37.934;2023-12-28T00:23:52;4.93;;;2.42;;
77868;SDS011;67231;59.144;37.934;2023-12-28T00:26:18;4.53;;;2.38;;
77868;SDS011;67231;59.144;37.934;2023-12-28T00:28:56;5.43;;;2.58;;
77868;SDS011;67231;59.144;37.934;2023-12-28T00:31:22;12.18;;;3.55;;
77868;SDS011;67231;59.144;37.934;2023-12-28T00:33:49;4.65;;;2.35;;
77868;SDS011;67231;59.144;37.934;2023-12-28T00:36:16;5.22;;;1.90;;
77868;SDS011;67231;59.144;37.934;2023-12-28T00:38:42;8.05;;;3.10;;
77868;SDS011;67231;59.144;37.934;2023-12-28T00:41:09;5.78;;;3.05;;
77868;SDS011;67231;59.144;37.934;2023-12-28T00:43:35;6.95;;;2.53;;
77868;SDS011;67231;59.144;37.934;2023-12-28T00:46:02;12.00;;;3.80;;
77868;SDS011;67231;59.144;37.934;2023-12-28T00:48:28;14.75;;;3.75;;
77868;SDS011;67231;59.144;37.934;2023-12-28T00:50:55;13.38;;;4.25;;
77868;SDS011;67231;59.144;37.934;2023-12-28T00:53:21;16.13;;;4.65;;
77868;SDS011;67231;59.144;37.934;2023-12-28T00:55:48;13.75;;;3.90;;
77868;SDS011;67231;59.144;37.934;2023-12-28T00:58:14;12.32;;;4.03;;
77868;SDS011;67231;59.144;37.934;2023-12-28T01:00:42;9.98;;;3.17;;
77868;SDS011;67231;59.144;37.934;2023-12-28T01:03:08;9.55;;;3.05;;
77868;SDS011;67231;59.144;37.934;2023-12-28T01:05:35;10.82;;;3.85;;
77868;SDS011;67231;59.144;37.934;2023-12-28T01:08:03;4.60;;;2.63;;
77868;SDS011;67231;59.144;37.934;2023-12-28T01:10:30;6.63;;;2.28;;
77868;SDS011;67231;59.144;37.934;2023-12-28T01:12:56;5.43;;;2.40;;
77868;SDS011;67231;59.144;37.934;2023-12-28T01:15:25;3.25;;;1.55;;
77868;SDS011;67231;59.144;37.934;2023-12-28T01:17:51;6.03;;;2.40;;
77868;SDS011;67231;59.144;37.934;2023-12-28T01:20:17;2.45;;;1.42;;
77868;SDS011;67231;59.144;37.934;2023-12-28T01:22:44;5.68;;;2.20;;
77868;SDS011;67231;59.144;37.934;2023-12-28T01:25:11;5.05;;;2.33;;
77868;SDS011;67231;59.144;37.934;2023-12-28T01:27:37;5.43;;;1.95;;
77868;SDS011;67231;59.144;37.934;2023-12-28T01:30:04;5.60;;;2.83;;
77868;SDS011;67231;59.144;37.934;2023-12-28T01:32:32;5.15;;;2.22;;
77868;SDS011;67231;59.144;37.934;2023-12-28T01:34:58;5.60;;;2.70;;
77868;SDS011;67231;59.144;37.934;2023-12-28T01:37:25;5.55;;;2.15;;
77868;SDS011;67231;59.144;37.934;2023-12-28T01:39:56;6.63;;;2.30;;
77868;SDS011;67231;59.144;37.934;2023-12-28T01:42:23;4.90;;;2.38;;
77868;SDS011;67231;59.144;37.934;2023-12-28T01:44:50;6.60;;;2.40;;
77868;SDS011;67231;59.144;37.934;2023-12-28T01:47:16;4.85;;;2.15;;
77868;SDS011;67231;59.144;37.934;2023-12-28T01:49:43;6.78;;;2.65;;
77868;SDS011;67231;59.144;37.934;2023-12-28T01:52:10;7.78;;;2.63;;
77868;SDS011;67231;59.144;37.934;2023-12-28T01:54:37;5.97;;;2.50;;
77868;SDS011;67231;59.144;37.934;2023-12-28T01:57:05;5.13;;;2.28;;
77868;SDS011;67231;59.144;37.934;2023-12-28T01:59:32;5.88;;;2.45;;
77868;SDS011;67231;59.144;37.934;2023-12-28T02:01:59;4.90;;;2.30;;
77868;SDS011;67231;59.144;37.934;2023-12-28T02:04:26;5.80;;;2.08;;
77868;SDS011;67231;59.144;37.934;2023-12-28T02:06:59;5.07;;;2.20;;
77868;SDS011;67231;59.144;37.934;2023-12-28T02:09:26;5.65;;;2.25;;
77868;SDS011;67231;59.144;37.934;2023-12-28T02:11:53;3.75;;;1.65;;
77868;SDS011;67231;59.144;37.934;2023-12-28T02:14:21;5.68;;;2.80;;
77868;SDS011;67231;59.144;37.934;2023-12-28T02:16:51;4.80;;;2.40;;
77868;SDS011;67231;59.144;37.934;2023-12-28T02:19:40;8.95;;;3.00;;
77868;SDS011;67231;59.144;37.934;2023-12-28T02:22:12;9.00;;;3.97;;
77868;SDS011;67231;59.144;37.934;2023-12-28T02:25:08;6.97;;;2.88;;
77868;SDS011;67231;59.144;37.934;2023-12-28T02:27:38;8.95;;;3.10;;
77868;SDS011;67231;59.144;37.934;2023-12-28T02:30:07;6.82;;;2.83;;
77868;SDS011;67231;59.144;37.934;2023-12-28T02:32:40;6.43;;;2.45;;
77868;SDS011;67231;59.144;37.934;2023-12-28T02:35:29;6.93;;;2.42;;
77868;SDS011;67231;59.144;37.934;2023-12-28T02:38:04;7.53;;;2.97;;
77868;SDS011;67231;59.144;37.934;2023-12-28T02:40:37;9.00;;;3.08;;
77868;SDS011;67231;59.144;37.934;2023-12-28T02:43:12;6.07;;;2.90;;
77868;SDS011;67231;59.144;37.934;2023-12-28T02:45:39;9.10;;;3.58;;
77868;SDS011;67231;59.144;37.934;2023-12-28T02:48:05;9.10;;;3.30;;
77868;SDS011;67231;59.144;37.934;2023-12-28T02:50:33;7.82;;;3.40;;
77868;SDS011;67231;59.144;37.934;2023-12-28T02:53:01;9.65;;;4.00;;
77868;SDS011;67231;59.144;37.934;2023-12-28T02:55:28;6.97;;;3.13;;
77868;SDS011;67231;59.144;37.934;2023-12-28T02:57:55;8.57;;;3.70;;
77868;SDS011;67231;59.144;37.934;2023-12-28T03:00:25;7.28;;;2.65;;
77868;SDS011;67231;59.144;37.934;2023-12-28T03:02:54;7.45;;;3.00;;
77868;SDS011;67231;59.144;37.934;2023-12-28T03:05:20;4.80;;;2.35;;
77868;SDS011;67231;59.144;37.934;2023-12-28T03:07:47;5.22;;;2.80;;
77868;SDS011;67231;59.144;37.934;2023-12-28T03:10:13;6.43;;;3.03;;
77868;SDS011;67231;59.144;37.934;2023-12-28T03:12:40;8.13;;;2.75;;
77868;SDS011;67231;59.144;37.934;2023-12-28T03:15:07;6.28;;;2.97;;
77868;SDS011;67231;59.144;37.934;2023-12-28T03:17:34;6.97;;;2.75;;
77868;SDS011;67231;59.144;37.934;2023-12-28T03:20:03;5.70;;;2.83;;
77868;SDS011;67231;59.144;37.934;2023-12-28T03:22:31;12.40;;;3.83;;
77868;SDS011;67231;59.144;37.934;2023-12-28T03:24:57;7.72;;;3.70;;
77868;SDS011;67231;59.144;37.934;2023-12-28T03:27:24;8.88;;;3.92;;
77868;SDS011;67231;59.144;37.934;2023-12-28T03:29:50;9.02;;;3.80;;
77868;SDS011;67231;59.144;37.934;2023-12-28T03:32:17;9.43;;;4.13;;
77868;SDS011;67231;59.144;37.934;2023-12-28T03:34:43;10.10;;;4.03;;
77868;SDS011;67231;59.144;37.934;2023-12-28T03:37:10;8.18;;;3.92;;
77868;SDS011;67231;59.144;37.934;2023-12-28T03:39:37;11.13;;;3.95;;
77868;SDS011;67231;59.144;37.934;2023-12-28T03:42:04;9.80;;;4.05;;
77868;SDS011;67231;59.144;37.934;2023-12-28T03:44:30;6.53;;;3.10;;
77868;SDS011;67231;59.144;37.934;2023-12-28T03:46:57;7.63;;;3.60;;
77868;SDS011;67231;59.144;37.934;2023-12-28T03:49:24;10.93;;;4.68;;
77868;SDS011;67231;59.144;37.934;2023-12-28T03:51:50;10.20;;;3.65;;
77868;SDS011;67231;59.144;37.934;2023-12-28T03:54:18;12.77;;;5.20;;
77868;SDS011;67231;59.144;37.934;2023-12-28T03:56:46;8.45;;;4.68;;
77868;SDS011;67231;59.144;37.934;2023-12-28T03:59:13;10.57;;;5.10;;
77868;SDS011;67231;59.144;37.934;2023-12-28T04:01:41;8.18;;;4.32;;
77868;SDS011;67231;59.144;37.934;2023-12-28T04:04:07;9.88;;;4.20;;
77868;SDS011;67231;59.144;37.934;2023-12-28T04:06:34;8.55;;;3.65;;
77868;SDS011;67231;59.144;37.934;2023-12-28T04:09:01;5.45;;;2.83;;
77868;SDS011;67231;59.144;37.934;2023-12-28T04:11:30;7.20;;;3.45;;
77868;SDS011;67231;59.144;37.934;2023-12-28T04:13:57;7.65;;;3.58;;
77868;SDS011;67231;59.144;37.934;2023-12-28T04:16:23;7.30;;;3.17;;
77868;SDS011;67231;59.144;37.934;2023-12-28T04:18:50;5.82;;;2.15;;
77868;SDS011;67231;59.144;37.934;2023-12-28T04:21:16;11.25;;;4.85;;
77868;SDS011;67231;59.144;37.934;2023-12-28T04:23:44;18.52;;;7.07;;
77868;SDS011;67231;59.144;37.934;2023-12-28T04:26:10;12.82;;;4.45;;
77868;SDS011;67231;59.144;37.934;2023-12-28T04:28:37;8.35;;;3.85;;
77868;SDS011;67231;59.144;37.934;2023-12-28T04:31:03;4.03;;;2.38;;
77868;SDS011;67231;59.144;37.934;2023-12-28T04:33:31;7.95;;;3.28;;
77868;SDS011;67231;59.144;37.934;2023-12-28T04:36:01;9.43;;;4.22;;
77868;SDS011;67231;59.144;37.934;2023-12-28T04:38:30;4.03;;;2.47;;
77868;SDS011;67231;59.144;37.934;2023-12-28T04:40:58;12.13;;;4.82;;
77868;SDS011;67231;59.144;37.934;2023-12-28T04:43:25;10.85;;;4.50;;
77868;SDS011;67231;59.144;37.934;2023-12-28T04:45:52;6.82;;;2.78;;
77868;SDS011;67231;59.144;37.934;2023-12-28T04:48:19;8.70;;;3.08;;
77868;SDS011;67231;59.144;37.934;2023-12-28T04:50:48;6.03;;;3.05;;
77868;SDS011;67231;59.144;37.934;2023-12-28T04:53:15;5.50;;;2.75;;
77868;SDS011;67231;59.144;37.934;2023-12-28T04:55:42;5.10;;;2.70;;
77868;SDS011;67231;59.144;37.934;2023-12-28T04:58:12;4.90;;;2.05;;
77868;SDS011;67231;59.144;37.934;2023-12-28T05:00:39;8.85;;;2.67;;
77868;SDS011;67231;59.144;37.934;2023-12-28T05:03:06;6.38;;;2.78;;
77868;SDS011;67231;59.144;37.934;2023-12-28T05:05:32;6.28;;;3.28;;
77868;SDS011;67231;59.144;37.934;2023-12-28T05:07:59;6.82;;;3.33;;
77868;SDS011;67231;59.144;37.934;2023-12-28T05:10:27;5.75;;;3.15;;
77868;SDS011;67231;59.144;37.934;2023-12-28T05:12:53;12.38;;;3.90;;
77868;SDS011;67231;59.144;37.934;2023-12-28T05:15:20;7.15;;;3.33;;
77868;SDS011;67231;59.144;37.934;2023-12-28T05:17:46;7.53;;;3.35;;
77868;SDS011;67231;59.144;37.934;2023-12-28T05:20:13;7.13;;;3.10;;
77868;SDS011;67231;59.144;37.934;2023-12-28T05:22:39;7.63;;;3.75;;
77868;SDS011;67231;59.144;37.934;2023-12-28T05:25:06;6.10;;;3.38;;
77868;SDS011;67231;59.144;37.934;2023-12-28T05:27:33;4.93;;;3.10;;
77868;SDS011;67231;59.144;37.934;2023-12-28T05:29:59;7.88;;;3.78;;
77868;SDS011;67231;59.144;37.934;2023-12-28T05:32:26;7.93;;;3.78;;
77868;SDS011;67231;59.144;37.934;2023-12-28T05:34:52;5.78;;;3.70;;
77868;SDS011;67231;59.144;37.934;2023-12-28T05:37:19;5.97;;;2.67;;
77868;SDS011;67231;59.144;37.934;2023-12-28T05:39:45;4.18;;;2.00;;
77868;SDS011;67231;59.144;37.934;2023-12-28T05:42:12;7.13;;;2.97;;
77868;SDS011;67231;59.144;37.934;2023-12-28T05:44:38;8.70;;;2.92;;
77868;SDS011;67231;59.144;37.934;2023-12-28T05:47:05;6.57;;;3.10;;
77868;SDS011;67231;59.144;37.934;2023-12-28T05:49:37;9.07;;;3.80;;
77868;SDS011;67231;59.144;37.934;2023-12-28T05:52:03;8.80;;;3.63;;
77868;SDS011;67231;59.144;37.934;2023-12-28T05:54:30;6.50;;;3.33;;
77868;SDS011;67231;59.144;37.934;2023-12-28T05:56:56;8.13;;;3.90;;
77868;SDS011;67231;59.144;37.934;2023-12-28T05:59:23;7.25;;;2.83;;
77868;SDS011;67231;59.144;37.934;2023-12-28T06:01:52;6.32;;;2.97;;
77868;SDS011;67231;59.144;37.934;2023-12-28T06:04:18;9.57;;;4.65;;
77868;SDS011;67231;59.144;37.934;2023-12-28T06:06:45;6.78;;;3.20;;
77868;SDS011;67231;59.144;37.934;2023-12-28T06:09:11;12.48;;;4.88;;
77868;SDS011;67231;59.144;37.934;2023-12-28T06:11:38;19.02;;;6.97;;
77868;SDS011;67231;59.144;37.934;2023-12-28T06:14:04;19.08;;;7.22;;
77868;SDS011;67231;59.144;37.934;2023-12-28T06:16:31;16.42;;;6.80;;
77868;SDS011;67231;59.144;37.934;2023-12-28T06:18:59;12.98;;;6.03;;
77868;SDS011;67231;59.144;37.934;2023-12-28T06:21:26;15.35;;;6.55;;
77868;SDS011;67231;59.144;37.934;2023-12-28T06:23:55;14.10;;;5.15;;
77868;SDS011;67231;59.144;37.934;2023-12-28T06:26:21;6.70;;;3.22;;
77868;SDS011;67231;59.144;37.934;2023-12-28T06:28:48;8.32;;;4.20;;
77868;SDS011;67231;59.144;37.934;2023-12-28T06:31:14;7.68;;;4.15;;
77868;SDS011;67231;59.144;37.934;2023-12-28T06:33:41;9.70;;;3.92;;
77868;SDS011;67231;59.144;37.934;2023-12-28T06:36:07;9.65;;;5.10;;
77868;SDS011;67231;59.144;37.934;2023-12-28T06:38:34;12.95;;;4.28;;
77868;SDS011;67231;59.144;37.934;2023-12-28T06:41:00;9.38;;;3.92;;
77868;SDS011;67231;59.144;37.934;2023-12-28T06:43:27;10.65;;;4.50;;
77868;SDS011;67231;59.144;37.934;2023-12-28T06:45:54;13.05;;;5.93;;
77868;SDS011;67231;59.144;37.934;2023-12-28T06:48:21;12.15;;;4.75;;
77868;SDS011;67231;59.144;37.934;2023-12-28T06:50:47;7.53;;;3.67;;
77868;SDS011;67231;59.144;37.934;2023-12-28T06:53:14;11.43;;;3.63;;
77868;SDS011;67231;59.144;37.934;2023-12-28T06:55:40;11.43;;;4.38;;
77868;SDS011;67231;59.144;37.934;2023-12-28T06:58:07;19.88;;;6.15;;
77868;SDS011;67231;59.144;37.934;2023-12-28T07:00:33;39.00;;;10.50;;
77868;SDS011;67231;59.144;37.934;2023-12-28T07:03:00;73.05;;;18.08;;
77868;SDS011;67231;59.144;37.934;2023-12-28T07:05:27;92.50;;;26.40;;
77868;SDS011;67231;59.144;37.934;2023-12-28T07:07:53;67.20;;;22.08;;
77868;SDS011;67231;59.144;37.934;2023-12-28T07:10:20;68.10;;;21.40;;
77868;SDS011;67231;59.144;37.934;2023-12-28T07:12:46;70.95;;;21.60;;
77868;SDS011;67231;59.144;37.934;2023-12-28T07:15:13;61.38;;;19.60;;
77868;SDS011;67231;59.144;37.934;2023-12-28T07:17:40;66.82;;;19.02;;
77868;SDS011;67231;59.144;37.934;2023-12-28T07:20:07;60.33;;;16.98;;
77868;SDS011;67231;59.144;37.934;2023-12-28T07:22:37;79.10;;;21.83;;
77868;SDS011;67231;59.144;37.934;2023-12-28T07:25:07;62.22;;;18.63;;
77868;SDS011;67231;59.144;37.934;2023-12-28T07:27:34;44.78;;;15.20;;
77868;SDS011;67231;59.144;37.934;2023-12-28T07:30:00;51.75;;;15.70;;
77868;SDS011;67231;59.144;37.934;2023-12-28T07:32:29;81.18;;;21.00;;
77868;SDS011;67231;59.144;37.934;2023-12-28T07:34:55;58.10;;;17.70;;
77868;SDS011;67231;59.144;37.934;2023-12-28T07:37:22;50.60;;;16.52;;
77868;SDS011;67231;59.144;37.934;2023-12-28T07:39:48;52.38;;;15.55;;
77868;SDS011;67231;59.144;37.934;2023-12-28T07:42:15;65.07;;;20.65;;
77868;SDS011;67231;59.144;37.934;2023-12-28T07:44:41;87.78;;;24.42;;
77868;SDS011;67231;59.144;37.934;2023-12-28T07:47:09;65.05;;;22.67;;
77868;SDS011;67231;59.144;37.934;2023-12-28T07:49:35;32.60;;;10.32;;
77868;SDS011;67231;59.144;37.934;2023-12-28T07:52:01;41.13;;;12.48;;
77868;SDS011;67231;59.144;37.934;2023-12-28T07:54:28;67.10;;;22.35;;
77868;SDS011;67231;59.144;37.934;2023-12-28T07:56:55;67.50;;;18.33;;
77868;SDS011;67231;59.144;37.934;2023-12-28T07:59:21;47.05;;;16.52;;
77868;SDS011;67231;59.144;37.934;2023-12-28T08:01:47;32.20;;;10.25;;
77868;SDS011;67231;59.144;37.934;2023-12-28T08:04:14;29.20;;;10.13;;
77868;SDS011;67231;59.144;37.934;2023-12-28T08:06:40;30.75;;;11.60;;
77868;SDS011;67231;59.144;37.934;2023-12-28T08:09:07;42.25;;;13.95;;
77868;SDS011;67231;59.144;37.934;2023-12-28T08:11:34;40.85;;;14.40;;
77868;SDS011;67231;59.144;37.934;2023-12-28T08:14:00;52.35;;;16.35;;
77868;SDS011;67231;59.144;37.934;2023-12-28T08:16:27;41.40;;;11.20;;
77868;SDS011;67231;59.144;37.934;2023-12-28T08:18:53;64.38;;;17.88;;
77868;SDS011;67231;59.144;37.934;2023-12-28T08:21:20;56.80;;;16.63;;
77868;SDS011;67231;59.144;37.934;2023-12-28T08:23:46;81.60;;;20.25;;
77868;SDS011;67231;59.144;37.934;2023-12-28T08:26:13;75.45;;;19.55;;
77868;SDS011;67231;59.144;37.934;2023-12-28T08:28:39;39.17;;;11.85;;
77868;SDS011;67231;59.144;37.934;2023-12-28T08:31:06;53.10;;;16.90;;
77868;SDS011;67231;59.144;37.934;2023-12-28T08:33:35;64.22;;;18.73;;
77868;SDS011;67231;59.144;37.934;2023-12-28T08:36:05;66.15;;;16.55;;
77868;SDS011;67231;59.144;37.934;2023-12-28T08:38:35;48.42;;;12.35;;
77868;SDS011;67231;59.144;37.934;2023-12-28T08:41:01;66.05;;;17.42;;
77868;SDS011;67231;59.144;37.934;2023-12-28T08:43:29;57.85;;;15.25;;
77868;SDS011;67231;59.144;37.934;2023-12-28T08:45:56;26.95;;;8.70;;
77868;SDS011;67231;59.144;37.934;2023-12-28T08:48:22;31.10;;;8.57;;
77868;SDS011;67231;59.144;37.934;2023-12-28T08:50:49;27.13;;;7.93;;
77868;SDS011;67231;59.144;37.934;2023-12-28T08:53:16;25.40;;;7.10;;
77868;SDS011;67231;59.144;37.934;2023-12-28T08:55:43;24.48;;;7.82;;
77868;SDS011;67231;59.144;37.934;2023-12-28T08:58:09;13.75;;;5.35;;
77868;SDS011;67231;59.144;37.934;2023-12-28T09:00:35;17.73;;;6.20;;
77868;SDS011;67231;59.144;37.934;2023-12-28T09:03:02;16.08;;;6.07;;
77868;SDS011;67231;59.144;37.934;2023-12-28T09:05:29;24.67;;;8.68;;
77868;SDS011;67231;59.144;37.934;2023-12-28T09:07:55;29.42;;;10.07;;
77868;SDS011;67231;59.144;37.934;2023-12-28T09:10:22;36.65;;;10.38;;
77868;SDS011;67231;59.144;37.934;2023-12-28T09:12:48;43.15;;;12.68;;
77868;SDS011;67231;59.144;37.934;2023-12-28T09:15:14;65.13;;;20.10;;
77868;SDS011;67231;59.144;37.934;2023-12-28T09:17:41;39.50;;;11.93;;
77868;SDS011;67231;59.144;37.934;2023-12-28T09:20:07;45.78;;;12.48;;
77868;SDS011;67231;59.144;37.934;2023-12-28T09:22:35;53.83;;;14.55;;
77868;SDS011;67231;59.144;37.934;2023-12-28T09:25:01;47.92;;;14.75;;
77868;SDS011;67231;59.144;37.934;2023-12-28T09:27:30;59.42;;;16.85;;
77868;SDS011;67231;59.144;37.934;2023-12-28T09:29:57;78.22;;;18.85;;
77868;SDS011;67231;59.144;37.934;2023-12-28T09:32:23;73.82;;;19.65;;
77868;SDS011;67231;59.144;37.934;2023-12-28T09:34:50;75.05;;;19.70;;
77868;SDS011;67231;59.144;37.934;2023-12-28T09:37:16;107.90;;;27.45;;
77868;SDS011;67231;59.144;37.934;2023-12-28T09:39:42;120.55;;;29.95;;
77868;SDS011;67231;59.144;37.934;2023-12-28T09:42:25;127.55;;;30.23;;
77868;SDS011;67231;59.144;37.934;2023-12-28T09:44:55;119.57;;;32.40;;
77868;SDS011;67231;59.144;37.934;2023-12-28T09:47:22;101.63;;;26.73;;
77868;SDS011;67231;59.144;37.934;2023-12-28T09:49:49;89.85;;;24.88;;
77868;SDS011;67231;59.144;37.934;2023-12-28T09:52:15;90.22;;;26.30;;
77868;SDS011;67231;59.144;37.934;2023-12-28T09:54:42;71.85;;;22.40;;
77868;SDS011;67231;59.144;37.934;2023-12-28T09:57:09;81.45;;;26.30;;
77868;SDS011;67231;59.144;37.934;2023-12-28T09:59:36;65.70;;;20.98;;
77868;SDS011;67231;59.144;37.934;2023-12-28T10:02:04;84.32;;;24.63;;
77868;SDS011;67231;59.144;37.934;2023-12-28T10:04:31;71.53;;;20.98;;
77868;SDS011;67231;59.144;37.934;2023-12-28T10:06:57;72.15;;;25.80;;
77868;SDS011;67231;59.144;37.934;2023-12-28T10:09:24;77.53;;;23.92;;
77868;SDS011;67231;59.144;37.934;2023-12-28T10:11:53;87.85;;;26.90;;
77868;SDS011;67231;59.144;37.934;2023-12-28T10:14:20;68.18;;;20.90;;
77868;SDS011;67231;59.144;37.934;2023-12-28T10:16:47;30.27;;;10.50;;
77868;SDS011;67231;59.144;37.934;2023-12-28T10:19:14;90.15;;;25.60;;
77868;SDS011;67231;59.144;37.934;2023-12-28T10:21:40;66.47;;;20.23;;
77868;SDS011;67231;59.144;37.934;2023-12-28T10:24:07;52.95;;;16.58;;
77868;SDS011;67231;59.144;37.934;2023-12-28T10:26:36;65.50;;;20.30;;
77868;SDS011;67231;59.144;37.934;2023-12-28T10:29:03;89.57;;;24.20;;
77868;SDS011;67231;59.144;37.934;2023-12-28T10:31:30;86.57;;;23.80;;
77868;SDS011;67231;59.144;37.934;2023-12-28T10:33:59;64.00;;;21.17;;
77868;SDS011;67231;59.144;37.934;2023-12-28T10:36:28;51.75;;;14.77;;
77868;SDS011;67231;59.144;37.934;2023-12-28T10:38:54;68.93;;;21.65;;
77868;SDS011;67231;59.144;37.934;2023-12-28T10:41:23;65.85;;;21.23;;
77868;SDS011;67231;59.144;37.934;2023-12-28T10:46:27;56.95;;;21.00;;
77868;SDS011;67231;59.144;37.934;2023-12-28T10:49:20;61.22;;;20.70;;
77868;SDS011;67231;59.144;37.934;2023-12-28T10:51:48;72.45;;;23.40;;
77868;SDS011;67231;59.144;37.934;2023-12-28T10:56:59;57.92;;;16.50;;
77868;SDS011;67231;59.144;37.934;2023-12-28T10:59:35;51.58;;;16.45;;
77868;SDS011;67231;59.144;37.934;2023-12-28T11:02:15;46.10;;;14.88;;
77868;SDS011;67231;59.144;37.934;2023-12-28T11:04:50;52.70;;;15.70;;
77868;SDS011;67231;59.144;37.934;2023-12-28T11:07:20;44.35;;;13.18;;
77868;SDS011;67231;59.144;37.934;2023-12-28T11:09:47;56.85;;;17.08;;
77868;SDS011;67231;59.144;37.934;2023-12-28T11:12:15;42.15;;;13.88;;
77868;SDS011;67231;59.144;37.934;2023-12-28T11:14:46;49.63;;;14.88;;
77868;SDS011;67231;59.144;37.934;2023-12-28T11:17:17;54.75;;;14.95;;
77868;SDS011;67231;59.144;37.934;2023-12-28T11:19:43;46.13;;;13.60;;
77868;SDS011;67231;59.144;37.934;2023-12-28T11:22:11;35.35;;;11.02;;
77868;SDS011;67231;59.144;37.934;2023-12-28T11:24:38;51.60;;;15.07;;
77868;SDS011;67231;59.144;37.934;2023-12-28T11:27:05;36.72;;;12.80;;
77868;SDS011;67231;59.144;37.934;2023-12-28T11:29:32;39.47;;;10.50;;
77868;SDS011;67231;59.144;37.934;2023-12-28T11:31:59;30.38;;;10.32;;
77868;SDS011;67231;59.144;37.934;2023-12-28T11:34:30;37.17;;;10.02;;
77868;SDS011;67231;59.144;37.934;2023-12-28T11:36:58;39.25;;;8.65;;
77868;SDS011;67231;59.144;37.934;2023-12-28T11:39:30;23.88;;;6.78;;
77868;SDS011;67231;59.144;37.934;2023-12-28T11:42:04;26.90;;;7.57;;
77868;SDS011;67231;59.144;37.934;2023-12-28T11:45:15;12.15;;;6.13;;
77868;SDS011;67231;59.144;37.934;2023-12-28T11:47:23;27.02;;;9.45;;
77868;SDS011;67231;59.144;37.934;2023-12-28T11:49:50;29.15;;;8.90;;
77868;SDS011;67231;59.144;37.934;2023-12-28T11:52:29;50.83;;;13.00;;
77868;SDS011;67231;59.144;37.934;2023-12-28T11:54:57;48.85;;;13.07;;
77868;SDS011;67231;59.144;37.934;2023-12-28T11:57:25;37.45;;;11.00;;
77868;SDS011;67231;59.144;37.934;2023-12-28T11:59:53;43.28;;;14.32;;
77868;SDS011;67231;59.144;37.934;2023-12-28T12:02:22;57.13;;;15.13;;
77868;SDS011;67231;59.144;37.934;2023-12-28T12:04:50;41.47;;;11.88;;
77868;SDS011;67231;59.144;37.934;2023-12-28T12:07:16;34.88;;;10.48;;
77868;SDS011;67231;59.144;37.934;2023-12-28T12:09:43;32.47;;;9.95;;
77868;SDS011;67231;59.144;37.934;2023-12-28T12:12:10;34.38;;;9.20;;
77868;SDS011;67231;59.144;37.934;2023-12-28T12:14:37;38.90;;;12.82;;
77868;SDS011;67231;59.144;37.934;2023-12-28T12:17:03;37.30;;;10.70;;
77868;SDS011;67231;59.144;37.934;2023-12-28T12:19:30;36.22;;;10.82;;
77868;SDS011;67231;59.144;37.934;2023-12-28T12:21:57;36.55;;;9.63;;
77868;SDS011;67231;59.144;37.934;2023-12-28T12:24:24;28.55;;;8.70;;
77868;SDS011;67231;59.144;37.934;2023-12-28T12:26:51;56.38;;;13.95;;
77868;SDS011;67231;59.144;37.934;2023-12-28T12:29:18;40.63;;;10.88;;
77868;SDS011;67231;59.144;37.934;2023-12-28T12:31:46;49.72;;;14.43;;
77868;SDS011;67231;59.144;37.934;2023-12-28T12:34:15;42.78;;;12.02;;
77868;SDS011;67231;59.144;37.934;2023-12-28T12:36:43;41.42;;;13.48;;
77868;SDS011;67231;59.144;37.934;2023-12-28T12:39:10;38.92;;;9.70;;
77868;SDS011;67231;59.144;37.934;2023-12-28T12:41:39;55.30;;;16.38;;
77868;SDS011;67231;59.144;37.934;2023-12-28T12:44:07;72.32;;;18.02;;
77868;SDS011;67231;59.144;37.934;2023-12-28T12:46:36;69.90;;;20.27;;
77868;SDS011;67231;59.144;37.934;2023-12-28T12:49:02;38.60;;;12.80;;
77868;SDS011;67231;59.144;37.934;2023-12-28T12:51:29;50.83;;;15.02;;
77868;SDS011;67231;59.144;37.934;2023-12-28T12:53:57;47.50;;;14.48;;
77868;SDS011;67231;59.144;37.934;2023-12-28T12:56:25;52.72;;;14.82;;
77868;SDS011;67231;59.144;37.934;2023-12-28T12:58:56;52.88;;;15.25;;
77868;SDS011;67231;59.144;37.934;2023-12-28T13:01:23;26.58;;;9.70;;
77868;SDS011;67231;59.144;37.934;2023-12-28T13:03:50;74.43;;;20.40;;
77868;SDS011;67231;59.144;37.934;2023-12-28T13:06:17;58.22;;;15.95;;
77868;SDS011;67231;59.144;37.934;2023-12-28T13:08:44;49.60;;;16.58;;
77868;SDS011;67231;59.144;37.934;2023-12-28T13:11:11;52.50;;;17.75;;
77868;SDS011;67231;59.144;37.934;2023-12-28T13:13:37;48.33;;;15.65;;
77868;SDS011;67231;59.144;37.934;2023-12-28T13:16:04;47.58;;;15.63;;
77868;SDS011;67231;59.144;37.934;2023-12-28T13:18:31;37.35;;;11.40;;
77868;SDS011;67231;59.144;37.934;2023-12-28T13:20:58;54.13;;;19.50;;
77868;SDS011;67231;59.144;37.934;2023-12-28T13:23:25;64.43;;;21.35;;
77868;SDS011;67231;59.144;37.934;2023-12-28T13:25:51;57.33;;;20.30;;
77868;SDS011;67231;59.144;37.934;2023-12-28T13:28:18;49.25;;;16.95;;
77868;SDS011;67231;59.144;37.934;2023-12-28T13:30:44;54.42;;;15.98;;
77868;SDS011;67231;59.144;37.934;2023-12-28T13:33:10;48.55;;;16.63;;
77868;SDS011;67231;59.144;37.934;2023-12-28T13:35:37;64.50;;;20.00;;
77868;SDS011;67231;59.144;37.934;2023-12-28T13:38:04;88.93;;;27.80;;
77868;SDS011;67231;59.144;37.934;2023-12-28T13:40:31;70.90;;;24.20;;
77868;SDS011;67231;59.144;37.934;2023-12-28T13:42:57;43.78;;;15.70;;
77868;SDS011;67231;59.144;37.934;2023-12-28T13:45:24;47.50;;;15.02;;
77868;SDS011;67231;59.144;37.934;2023-12-28T13:47:50;57.15;;;20.20;;
77868;SDS011;67231;59.144;37.934;2023-12-28T13:50:16;34.05;;;12.32;;
77868;SDS011;67231;59.144;37.934;2023-12-28T13:52:43;69.13;;;22.38;;
77868;SDS011;67231;59.144;37.934;2023-12-28T13:55:09;54.75;;;18.73;;
77868;SDS011;67231;59.144;37.934;2023-12-28T13:57:37;77.75;;;24.55;;
77868;SDS011;67231;59.144;37.934;2023-12-28T14:00:04;51.80;;;17.60;;
77868;SDS011;67231;59.144;37.934;2023-12-28T14:02:38;53.03;;;19.13;;
77868;SDS011;67231;59.144;37.934;2023-12-28T14:05:06;38.95;;;14.32;;
77868;SDS011;67231;59.144;37.934;2023-12-28T14:07:33;48.70;;;18.13;;
77868;SDS011;67231;59.144;37.934;2023-12-28T14:09:59;45.05;;;15.00;;
77868;SDS011;67231;59.144;37.934;2023-12-28T14:12:26;34.42;;;11.55;;
77868;SDS011;67231;59.144;37.934;2023-12-28T14:14:52;38.17;;;11.38;;
77868;SDS011;67231;59.144;37.934;2023-12-28T14:17:19;56.05;;;18.48;;
77868;SDS011;67231;59.144;37.934;2023-12-28T14:19:46;39.17;;;13.32;;
77868;SDS011;67231;59.144;37.934;2023-12-28T14:22:13;52.53;;;14.40;;
77868;SDS011;67231;59.144;37.934;2023-12-28T14:24:40;61.15;;;17.83;;
77868;SDS011;67231;59.144;37.934;2023-12-28T14:27:07;52.60;;;14.60;;
77868;SDS011;67231;59.144;37.934;2023-12-28T14:29:33;52.88;;;15.93;;